Terminal Aerodrome Forecast
Issued by NWS

Home | Current Version | Previous Version | Text Only | Print | Product List | Glossary On
Versions: 1 2 3 4 5 6 7 8 9 10 11 12 13 14 15 16 17 18 19 20
000
FTUS46 KLOX 101700 AAA
TAFPRB
TAF AMD
KPRB 101758Z 1018/1118 20012KT P6SM SKC
     FM102200 20020G28KT P6SM SKC
     FM110200 20014KT P6SM SKC
     FM110600 25006KT P6SM SKC
     FM111000 VRB03KT P6SM OVC010
     FM111500 VRB05KT P6SM SCT010=

USA.gov is the U.S. government's official web portal to all federal, state and local government web resources and services.